Hovedside
METAR-TAF:

METAR-TAF

Lufthavner :

Lycksele, Sverige

Lycksele lufthavn

breddegrad: 64-32-51N, lengdegrad: 018-43-03E, høyde over havet: 211 m

Gjeldene værobservasjon

Denne rapporten ble laget for 17 minutter siden, klokken 04:20 UTC
Vind 4 kt fra Nordvest
Temperatur -2°C
Luftfuktighet 86%
Trykk 1005 hPa
Sikt: 7000 m
Få skyer i en høyde av 1000 ft
Overskyet i en høyde av 2200 ft
kornsnø

METAR: ESNL 250420Z 32004KT 7000 SG FEW010 OVC022 M02/M04 Q1005

Tid: 06:37 (04:37 UTC)


TAF: fraværende

Værobservasjoner og værvarsel for over 4000 flyplasser (METAR- og TAF-rapporter).

Tilgjengelige stasjoner er representert av de røde og gule prikkene på kartet.

Hold musepekeren over prikken for å se navnet på stasjonen.

Klikk så for å se værobservasjoner og -varsler.

For å forandre kartet kan du klikke på den grønne knappen med svart kryss for å zoome inn, på den grønne knappen med strek for å zoome ut, eller på de grønne pilene for å se tilstøtende kart.


METAR-TAF: